createdAt,value
2018-11-20T00:00:57.608Z,83.70
2018-11-20T00:04:04.746Z,84.10
2018-11-20T00:07:12.004Z,83.80
2018-11-20T00:10:19.183Z,84.50
2018-11-20T00:13:26.385Z,84.20
2018-11-20T00:16:33.551Z,84.00
2018-11-20T00:19:40.738Z,85.00
2018-11-20T00:22:47.873Z,85.20
2018-11-20T00:32:08.415Z,85.20
2018-11-20T00:35:15.593Z,85.90
2018-11-20T00:38:22.739Z,86.30
2018-11-20T00:41:29.934Z,86.60
2018-11-20T00:48:22.545Z,87.60
2018-11-20T00:51:29.741Z,88.40
2018-11-20T00:54:37.158Z,88.20
2018-11-20T00:57:44.561Z,88.50
2018-11-20T01:00:20.079Z,87.80
2018-11-20T01:03:27.250Z,89.30
2018-11-20T01:06:34.665Z,89.70
2018-11-20T01:09:41.822Z,89.40
2018-11-20T01:12:49.250Z,89.60
2018-11-20T01:15:56.444Z,89.70
2018-11-20T01:19:03.578Z,89.90
2018-11-20T01:22:10.800Z,90.10
2018-11-20T01:25:17.943Z,90.40
2018-11-20T01:28:25.117Z,90.40
2018-11-20T01:31:32.286Z,90.30
2018-11-20T01:34:28.082Z,90.40
2018-11-20T01:37:05.711Z,90.40
2018-11-20T01:40:12.865Z,90.50
2018-11-20T01:43:14.149Z,90.50
2018-11-20T01:46:21.304Z,90.50
2018-11-20T01:49:28.525Z,90.80
2018-11-20T01:52:35.677Z,90.50
2018-11-20T01:55:24.470Z,90.50
2018-11-20T01:58:31.658Z,90.70
2018-11-20T02:01:38.830Z,90.70
2018-11-20T02:04:46.009Z,90.70
2018-11-20T02:07:53.157Z,90.50
2018-11-20T02:11:00.330Z,90.60
2018-11-20T02:14:26.519Z,90.90
2018-11-20T02:17:35.798Z,90.90
2018-11-20T02:20:43.830Z,90.30
2018-11-20T02:23:51.018Z,90.30
2018-11-20T02:26:58.301Z,90.30
2018-11-20T02:30:05.482Z,90.30
2018-11-20T02:33:12.658Z,89.70
2018-11-20T02:36:19.828Z,90.00
2018-11-20T02:39:19.360Z,89.90
2018-11-20T02:42:26.530Z,89.30
2018-11-20T02:45:33.704Z,88.20
2018-11-20T02:48:40.951Z,87.90
2018-11-20T02:51:48.197Z,87.90
2018-11-20T02:54:55.367Z,87.90
2018-11-20T02:58:03.235Z,88.60
2018-11-20T03:01:10.417Z,87.50
2018-11-20T03:04:17.611Z,87.40
2018-11-20T03:06:52.945Z,86.90
2018-11-20T03:10:00.117Z,88.20
2018-11-20T03:13:07.274Z,87.90
2018-11-20T03:16:14.459Z,87.80
2018-11-20T03:19:21.645Z,87.90
2018-11-20T03:22:28.785Z,88.40
2018-11-20T03:25:55.015Z,89.30
2018-11-20T03:35:04.913Z,88.10
2018-11-20T03:37:52.997Z,88.50
2018-11-20T03:40:51.952Z,89.50
2018-11-20T03:43:47.002Z,90.00
2018-11-20T03:46:54.177Z,89.80
2018-11-20T03:49:52.837Z,89.30
2018-11-20T03:52:50.189Z,89.20
2018-11-20T03:58:32.493Z,88.20
2018-11-20T04:04:03.836Z,88.50
2018-11-20T04:07:11.292Z,88.60
2018-11-20T04:09:51.715Z,88.20
2018-11-20T04:12:58.899Z,88.60
2018-11-20T04:16:06.059Z,88.00
2018-11-20T04:19:03.788Z,88.10
2018-11-20T04:22:10.960Z,89.10
2018-11-20T04:25:18.367Z,89.50
2018-11-20T04:28:25.512Z,89.50
2018-11-20T04:31:51.713Z,89.40
2018-11-20T04:34:59.311Z,89.60
2018-11-20T04:38:06.485Z,89.20
2018-11-20T04:41:13.732Z,90.00
2018-11-20T04:44:21.091Z,89.80
2018-11-20T04:47:28.237Z,90.10
2018-11-20T04:50:38.333Z,90.60
2018-11-20T04:53:45.505Z,90.40
2018-11-20T04:56:52.892Z,90.80
2018-11-20T04:59:40.983Z,90.90
2018-11-20T05:02:48.136Z,91.20
2018-11-20T05:05:55.306Z,91.00
2018-11-20T05:09:02.496Z,91.10
2018-11-20T05:12:09.641Z,91.60
2018-11-20T05:15:17.082Z,91.30
2018-11-20T05:18:16.573Z,91.30
2018-11-20T05:21:23.800Z,90.90
2018-11-20T05:24:21.889Z,91.10
2018-11-20T05:27:10.003Z,91.40
2018-11-20T05:30:17.383Z,91.40
2018-11-20T05:33:24.973Z,91.40
2018-11-20T05:36:32.154Z,91.40
2018-11-20T05:39:39.325Z,91.50
2018-11-20T05:42:46.503Z,91.60
2018-11-20T05:45:53.681Z,91.60
2018-11-20T05:49:00.827Z,91.40
2018-11-20T05:52:07.990Z,91.40
2018-11-20T05:55:15.161Z,91.50
2018-11-20T05:58:22.580Z,91.60
2018-11-20T06:01:29.755Z,91.40
2018-11-20T06:04:36.917Z,91.40
2018-11-20T06:07:44.069Z,91.10
2018-11-20T06:10:51.240Z,91.40
2018-11-20T06:13:58.440Z,91.40
2018-11-20T06:17:05.593Z,91.30
2018-11-20T06:20:13.044Z,91.40
2018-11-20T06:23:20.207Z,91.40
2018-11-20T06:26:27.418Z,91.70
2018-11-20T06:29:34.616Z,91.60
2018-11-20T06:38:46.078Z,91.00
2018-11-20T06:41:53.930Z,91.30
2018-11-20T06:45:01.117Z,91.60
2018-11-20T06:48:08.287Z,91.30
2018-11-20T06:51:02.221Z,91.50
2018-11-20T06:54:09.413Z,91.30
2018-11-20T06:57:16.900Z,91.10
2018-11-20T07:00:24.206Z,91.30
2018-11-20T07:03:31.386Z,91.20
2018-11-20T07:06:41.221Z,91.00
2018-11-20T07:09:48.397Z,91.00
2018-11-20T07:12:55.563Z,91.00
2018-11-20T07:16:03.034Z,90.60
2018-11-20T07:19:10.195Z,90.90
2018-11-20T07:22:05.506Z,91.10
2018-11-20T07:25:12.686Z,91.10
2018-11-20T07:28:19.863Z,90.70
2018-11-20T07:31:27.144Z,91.30
2018-11-20T07:34:34.202Z,90.90
2018-11-20T07:37:41.437Z,90.90
2018-11-20T07:40:48.612Z,91.00
2018-11-20T07:49:06.887Z,91.10
2018-11-20T07:52:14.134Z,91.30
2018-11-20T07:55:02.528Z,91.10
2018-11-20T07:58:09.743Z,91.00
2018-11-20T08:01:17.130Z,90.90
2018-11-20T08:04:49.804Z,91.00
2018-11-20T08:07:49.130Z,91.20
2018-11-20T08:10:48.976Z,91.10
2018-11-20T08:13:48.349Z,91.30
2018-11-20T08:16:47.793Z,91.80
2018-11-20T08:19:47.784Z,91.20
2018-11-20T08:22:28.963Z,91.40
2018-11-20T08:25:28.890Z,91.40
2018-11-20T08:28:28.760Z,91.40
2018-11-20T08:31:28.696Z,91.40
2018-11-20T08:34:28.726Z,91.40
2018-11-20T08:37:28.746Z,91.40
2018-11-20T08:40:28.350Z,91.40
2018-11-20T08:43:28.230Z,91.60
2018-11-20T08:46:34.217Z,91.90
2018-11-20T08:49:34.239Z,91.70
2018-11-20T08:52:33.996Z,91.70
2018-11-20T08:55:36.940Z,91.70
2018-11-20T08:58:36.965Z,91.80
2018-11-20T09:01:36.313Z,92.00
2018-11-20T09:04:42.450Z,91.90
2018-11-20T09:07:34.196Z,91.90
2018-11-20T09:10:31.073Z,91.80
2018-11-20T09:13:30.922Z,91.60
2018-11-20T09:16:27.534Z,91.40
2018-11-20T09:19:27.422Z,91.50
2018-11-20T09:22:27.157Z,91.40
2018-11-20T09:25:18.047Z,91.20
2018-11-20T09:28:18.082Z,91.50
2018-11-20T09:31:18.135Z,91.40
2018-11-20T09:34:18.367Z,91.70
2018-11-20T09:37:18.157Z,91.60
2018-11-20T09:40:17.939Z,91.50
2018-11-20T09:43:09.973Z,91.70
2018-11-20T09:46:10.314Z,91.80
2018-11-20T09:49:04.800Z,91.50
2018-11-20T09:52:04.887Z,91.90
2018-11-20T09:55:10.324Z,92.00
2018-11-20T09:58:09.810Z,91.70
2018-11-20T10:01:09.700Z,92.00
2018-11-20T10:04:09.841Z,91.90
2018-11-20T10:07:09.985Z,92.30
2018-11-20T10:10:00.375Z,92.20
2018-11-20T10:13:00.247Z,91.90
2018-11-20T10:15:59.940Z,92.10
2018-11-20T10:19:00.014Z,92.40
2018-11-20T10:22:02.767Z,92.00
2018-11-20T10:24:58.859Z,91.80
2018-11-20T10:28:00.173Z,91.80
2018-11-20T10:31:00.245Z,91.60
2018-11-20T10:33:47.606Z,91.80
2018-11-20T10:36:54.402Z,91.90
2018-11-20T10:40:01.189Z,91.40
2018-11-20T10:43:08.011Z,91.60
2018-11-20T10:46:14.821Z,91.30
2018-11-20T10:49:21.562Z,91.30
2018-11-20T10:52:28.371Z,90.50
2018-11-20T10:55:35.136Z,90.60
2018-11-20T10:58:41.926Z,90.70
2018-11-20T11:01:48.699Z,90.30
2018-11-20T11:04:55.507Z,90.30
2018-11-20T11:08:02.584Z,90.50
2018-11-20T11:11:00.069Z,90.60
2018-11-20T11:14:06.821Z,90.70
2018-11-20T11:17:13.594Z,90.70
2018-11-20T11:20:20.651Z,90.50
2018-11-20T11:23:27.389Z,90.30
2018-11-20T11:32:37.282Z,89.60
2018-11-20T11:35:44.053Z,90.50
2018-11-20T11:38:51.122Z,90.50
2018-11-20T11:41:57.901Z,90.30
2018-11-20T11:45:04.701Z,90.30
2018-11-20T11:48:11.473Z,89.90
2018-11-20T11:51:18.272Z,90.10
2018-11-20T11:54:13.326Z,90.10
2018-11-20T11:57:20.128Z,89.80
2018-11-20T12:00:28.559Z,90.00
2018-11-20T12:03:25.643Z,88.90
2018-11-20T12:06:32.404Z,90.00
2018-11-20T12:09:39.189Z,90.00
2018-11-20T12:12:34.148Z,90.20
2018-11-20T12:15:40.904Z,89.80
2018-11-20T12:18:47.716Z,90.30
2018-11-20T12:21:46.080Z,89.70
2018-11-20T12:24:52.845Z,90.10
2018-11-20T12:27:59.863Z,90.00
2018-11-20T12:31:06.855Z,89.70
2018-11-20T12:34:07.768Z,90.00
2018-11-20T12:37:15.072Z,90.50
2018-11-20T12:40:21.860Z,90.70
2018-11-20T12:43:28.644Z,91.30
2018-11-20T12:46:35.409Z,92.40
2018-11-20T12:49:42.189Z,92.60
2018-11-20T12:52:48.971Z,92.90
2018-11-20T12:55:55.753Z,93.10
2018-11-20T12:59:02.780Z,93.40
2018-11-20T13:02:09.627Z,93.50
2018-11-20T13:05:16.385Z,94.00
2018-11-20T13:08:23.175Z,94.50
2018-11-20T13:11:10.504Z,94.60
2018-11-20T13:14:17.380Z,94.30
2018-11-20T13:17:24.189Z,94.40
2018-11-20T13:20:11.775Z,94.80
2018-11-20T13:23:18.568Z,95.20
2018-11-20T13:26:25.408Z,95.40
2018-11-20T13:29:32.183Z,95.80
2018-11-20T13:32:29.441Z,95.80
2018-11-20T13:35:36.220Z,96.30
2018-11-20T13:38:42.981Z,96.40
2018-11-20T13:42:09.194Z,96.50
2018-11-20T13:45:18.650Z,96.90
2018-11-20T13:48:22.770Z,96.90
2018-11-20T13:51:29.536Z,97.10
2018-11-20T13:54:36.762Z,97.30
2018-11-20T13:57:36.998Z,97.70
2018-11-20T14:00:43.807Z,98.00
2018-11-20T14:03:50.564Z,98.10
2018-11-20T14:06:37.892Z,98.30
2018-11-20T14:09:47.004Z,98.30
2018-11-20T14:12:55.511Z,98.50
2018-11-20T14:16:02.359Z,98.50
2018-11-20T14:19:09.125Z,98.70
2018-11-20T14:22:05.209Z,98.70
2018-11-20T14:25:12.184Z,98.70
2018-11-20T14:28:18.950Z,98.70
2018-11-20T14:31:25.736Z,98.80
2018-11-20T14:34:32.504Z,99.10
2018-11-20T14:37:33.404Z,99.00
2018-11-20T14:40:31.984Z,99.10
2018-11-20T14:43:38.911Z,99.30
2018-11-20T14:46:39.236Z,99.20
2018-11-20T14:49:45.993Z,99.40
2018-11-20T14:52:52.766Z,99.40
2018-11-20T14:55:59.823Z,99.60
2018-11-20T14:59:06.650Z,99.60
2018-11-20T15:02:13.413Z,99.80
2018-11-20T15:05:20.217Z,99.70
2018-11-20T15:08:27.023Z,99.80
2018-11-20T15:11:34.069Z,99.90
2018-11-20T15:14:41.046Z,99.90
2018-11-20T15:17:28.343Z,99.90
2018-11-20T15:20:35.122Z,99.90
2018-11-20T15:23:41.878Z,99.90
2018-11-20T15:26:29.216Z,99.90
2018-11-20T15:29:36.014Z,99.90
2018-11-20T15:32:42.803Z,99.90
2018-11-20T15:35:49.575Z,99.90
2018-11-20T15:38:46.917Z,99.90
2018-11-20T15:41:53.739Z,99.90
2018-11-20T15:45:00.523Z,99.90
2018-11-20T15:48:07.300Z,99.90
2018-11-20T15:51:02.391Z,99.90
2018-11-20T15:53:49.688Z,99.90
2018-11-20T15:56:50.114Z,99.90
2018-11-20T15:59:37.446Z,99.90
2018-11-20T16:02:24.785Z,99.90
2018-11-20T16:05:31.530Z,99.90
2018-11-20T16:08:38.298Z,99.70
2018-11-20T16:11:45.110Z,99.80
2018-11-20T16:20:45.959Z,99.30
2018-11-20T16:23:52.751Z,99.70
2018-11-20T16:26:59.499Z,99.80
2018-11-20T16:30:06.269Z,99.90
2018-11-20T16:33:13.092Z,99.90
2018-11-20T16:36:03.034Z,99.90
2018-11-20T16:39:07.417Z,99.90
2018-11-20T16:42:14.396Z,99.90
2018-11-20T16:45:21.148Z,99.90
2018-11-20T16:48:27.950Z,99.90
2018-11-20T16:51:34.723Z,99.90
2018-11-20T16:54:41.470Z,99.90
2018-11-20T16:57:48.251Z,99.90
2018-11-20T17:00:54.987Z,99.90
2018-11-20T17:04:01.835Z,99.90
2018-11-20T17:07:08.605Z,99.90
2018-11-20T17:10:07.939Z,99.90
2018-11-20T17:12:55.300Z,99.90
2018-11-20T17:16:02.328Z,99.90
2018-11-20T17:19:09.153Z,99.90
2018-11-20T17:21:56.467Z,99.80
2018-11-20T17:25:03.263Z,99.90
2018-11-20T17:28:10.324Z,99.90
2018-11-20T17:31:17.085Z,99.70
2018-11-20T17:34:23.883Z,99.80
2018-11-20T17:37:30.634Z,99.60
2018-11-20T17:40:37.656Z,99.60
2018-11-20T17:43:44.441Z,99.90
2018-11-20T17:46:51.203Z,99.90
2018-11-20T17:49:38.531Z,99.70
2018-11-20T17:52:20.726Z,99.60
2018-11-20T17:55:27.730Z,99.40
2018-11-20T18:01:41.158Z,99.30
2018-11-20T18:04:28.466Z,99.70
2018-11-20T18:07:35.221Z,99.90
2018-11-20T18:10:42.005Z,99.90
2018-11-20T18:13:48.788Z,99.80
2018-11-20T18:16:55.561Z,99.60
2018-11-20T18:19:52.196Z,99.60
2018-11-20T18:22:58.970Z,99.80
2018-11-20T18:26:05.756Z,99.60
2018-11-20T18:29:12.577Z,99.40
2018-11-20T18:32:19.343Z,99.30
2018-11-20T18:35:26.147Z,99.10
2018-11-20T18:38:32.440Z,99.50
2018-11-20T18:41:32.294Z,99.50
2018-11-20T18:44:32.274Z,99.50
2018-11-20T18:47:32.023Z,99.60
2018-11-20T18:50:32.124Z,99.50
2018-11-20T18:53:31.871Z,99.70
2018-11-20T18:56:26.294Z,99.80
2018-11-20T18:59:25.934Z,99.30
2018-11-20T19:02:13.501Z,99.30
2018-11-20T19:05:20.291Z,99.50
2018-11-20T19:08:27.108Z,99.50
2018-11-20T19:11:33.915Z,99.40
2018-11-20T19:14:40.678Z,99.70
2018-11-20T19:17:47.467Z,99.60
2018-11-20T19:20:54.260Z,99.30
2018-11-20T19:24:01.279Z,99.40
2018-11-20T19:27:08.062Z,99.70
2018-11-20T19:29:58.789Z,99.70
2018-11-20T19:33:05.550Z,99.60
2018-11-20T19:36:05.259Z,99.50
2018-11-20T19:39:05.346Z,99.30
2018-11-20T19:42:05.131Z,99.50
2018-11-20T19:45:05.104Z,99.30
2018-11-20T19:48:05.297Z,99.60
2018-11-20T19:51:05.556Z,99.30
2018-11-20T19:54:05.490Z,99.40
2018-11-20T19:57:05.770Z,99.30
2018-11-20T20:00:05.798Z,99.20
2018-11-20T20:03:05.849Z,99.20
2018-11-20T20:06:05.700Z,99.10
2018-11-20T20:09:05.903Z,99.20
2018-11-20T20:12:05.928Z,98.90
2018-11-20T20:15:05.464Z,99.20
2018-11-20T20:18:05.478Z,99.00
2018-11-20T20:20:58.024Z,98.80
2018-11-20T20:23:50.072Z,98.90
2018-11-20T20:26:44.780Z,99.30
2018-11-20T20:29:39.871Z,99.10
2018-11-20T20:32:40.144Z,99.00
2018-11-20T20:35:39.955Z,99.10
2018-11-20T20:38:40.016Z,99.20
2018-11-20T20:41:39.965Z,99.10
2018-11-20T20:44:39.403Z,99.40
2018-11-20T20:47:39.489Z,99.10
2018-11-20T20:50:39.640Z,99.30
2018-11-20T20:53:39.666Z,98.70
2018-11-20T20:56:44.984Z,99.10
2018-11-20T20:59:45.170Z,99.00
2018-11-20T21:02:45.362Z,98.90
2018-11-20T21:05:50.901Z,98.80
2018-11-20T21:08:38.199Z,98.80
2018-11-20T21:11:44.989Z,99.20
2018-11-20T21:14:51.809Z,99.10
2018-11-20T21:17:49.515Z,98.80
2018-11-20T21:20:56.361Z,98.80
2018-11-20T21:24:03.098Z,98.70
2018-11-20T21:27:09.878Z,99.00
2018-11-20T21:30:16.892Z,98.80
2018-11-20T21:33:23.660Z,99.10
2018-11-20T21:36:30.441Z,99.10
2018-11-20T21:39:37.246Z,99.00
2018-11-20T21:42:44.037Z,98.90
2018-11-20T21:45:50.781Z,98.80
2018-11-20T21:48:57.600Z,99.00
2018-11-20T21:52:04.382Z,98.70
2018-11-20T21:55:11.201Z,98.60
2018-11-20T21:58:17.976Z,98.70
